Time;durP1;ratioP1;P1;durP2;ratioP2;P2;SDS_P1;SDS_P2;PMS_P1;PMS_P2;Temp;Humidity;BMP_temperature;BMP_pressure;BME280_temperature;BME280_humidity;BME280_pressure;Samples;Min_cycle;Max_cycle;Signal;HPM_P1;HPM_P2
2021/06/09 00:02:40;;;;;;;;;;;;;;;;;;;;;
2021/06/09 00:06:50;;;;;;;4.30;3.37;;;;;;;23.05;44.64;100299.39;1714693;113;25922;-85
2021/06/09 00:10:33;;;;;;;;;;;;;;;;;;;;;
2021/06/09 00:14:06;;;;;;;3.58;3.27;;;;;;;22.84;44.92;100292.88;1741856;109;25607;-79
2021/06/09 00:17:50;;;;;;;4.42;3.85;;;;;;;22.71;45.12;100292.34;1769453;108;26162;-84
2021/06/09 00:21:22;;;;;;;6.20;4.12;;;;;;;22.70;45.28;100293.27;1747769;110;25642;-82
2021/06/09 00:25:13;;;;;;;5.90;4.35;;;;;;;22.63;45.43;100289.91;1792024;108;25953;-87
2021/06/09 00:37:07;;;;;;;;;;;;;;;;;;;;;
2021/06/09 00:44:49;;;;;;;5.42;4.85;;;;;;;22.32;46.14;100274.39;1684107;115;26011;-84
2021/06/09 00:48:44;;;;;;;6.10;4.47;;;;;;;22.28;46.23;100273.59;1720820;112;25902;-84
2021/06/09 00:52:38;;;;;;;4.80;4.40;;;;;;;22.24;46.34;100281.23;1704581;114;25809;-77
2021/06/09 00:56:22;;;;;;;11.18;5.42;;;;;;;22.21;46.47;100279.09;1698175;115;25890;-81
2021/06/09 00:59:53;;;;;;;7.40;4.22;;;;;;;22.11;46.58;100276.66;1701453;115;26072;-79
2021/06/09 01:03:14;;;;;;;5.87;4.62;;;;;;;22.04;46.96;100284.79;1670001;116;25820;-83
2021/06/09 01:06:38;;;;;;;7.30;5.05;;;;;;;21.96;47.04;100286.32;1692471;116;25817;-84
2021/06/09 01:10:06;;;;;;;11.70;4.87;;;;;;;21.89;47.25;100288.25;1693518;115;25447;-83
2021/06/09 01:13:45;;;;;;;6.45;4.58;;;;;;;21.84;47.51;100291.95;1693161;115;25865;-84
2021/06/09 01:25:28;;;;;;;10.40;6.00;;;;;;;21.72;47.84;100290.91;1664295;115;25702;-82
2021/06/09 01:29:17;;;;;;;7.90;4.87;;;;;;;21.68;47.95;100290.11;1704129;115;31046;-77
2021/06/09 01:33:29;;;;;;;10.20;4.78;;;;;;;21.64;48.02;100297.27;1708261;113;25877;-83
2021/06/09 01:41:42;;;;;;;10.43;5.50;;;;;;;21.53;48.37;100301.05;1690151;113;25938;-84
2021/06/09 01:45:34;;;;;;;;;;;;;;;;;;;;;
2021/06/09 01:49:52;;;;;;;;;;;;;;;;;;;;;
2021/06/09 18:53:55;;;;;;;8.85;7.28;;;;;;;26.23;32.90;100181.69;2637579;74;25430;-81
2021/06/09 18:57:30;;;;;;;7.53;4.30;;;;;;;26.23;32.93;100185.70;2593073;75;25499;-80
2021/06/09 19:00:52;;;;;;;7.08;3.15;;;;;;;26.21;32.69;100182.21;2562478;75;25662;-80
2021/06/09 19:04:18;;;;;;;3.00;1.85;;;;;;;26.18;32.64;100189.02;2476610;79;25724;-79
2021/06/09 19:07:50;;;;;;;6.58;1.37;;;;;;;26.18;32.47;100184.16;2445000;80;25584;-77
2021/06/09 19:11:15;;;;;;;5.85;1.50;;;;;;;26.19;32.28;100192.56;2453802;80;25685;-79
2021/06/09 19:14:47;;;;;;;7.03;2.67;;;;;;;26.20;32.15;100195.18;2449788;78;25620;-80
2021/06/09 19:18:13;;;;;;;5.70;2.00;;;;;;;26.19;32.17;100197.91;2384413;80;26277;-81
2021/06/09 19:21:41;;;;;;;2.22;1.40;;;;;;;26.16;32.25;100199.41;2382573;81;25851;-82
2021/06/09 19:25:09;;;;;;;6.08;1.22;;;;;;;26.10;32.42;100201.86;2306456;84;26062;-84
2021/06/09 19:28:34;;;;;;;4.83;1.70;;;;;;;26.09;32.47;100202.34;2358794;82;26315;-86
2021/06/09 19:32:14;;;;;;;6.20;1.10;;;;;;;26.04;32.43;100202.98;2321207;81;25654;-83
2021/06/09 19:35:37;;;;;;;5.17;1.52;;;;;;;26.00;32.51;100196.52;2417963;81;25773;-75
2021/06/09 19:39:05;;;;;;;10.75;2.27;;;;;;;25.94;32.60;100199.45;2348731;83;25725;-85
2021/06/09 19:42:36;;;;;;;3.55;1.20;;;;;;;25.85;32.73;100206.03;2372075;82;25715;-78
2021/06/09 19:45:59;;;;;;;15.63;6.90;;;;;;;25.78;32.89;100212.06;2356041;83;25705;-88
2021/06/09 19:49:24;;;;;;;5.03;2.83;;;;;;;25.70;33.16;100217.34;2359887;83;25555;-89
2021/06/09 19:52:49;;;;;;;3.72;1.90;;;;;;;25.63;33.11;100217.59;2363573;83;25772;-91
2021/06/09 19:56:13;;;;;;;8.05;1.82;;;;;;;25.48;33.22;100216.91;2257398;86;25940;-88
2021/06/09 19:59:34;;;;;;;5.67;1.77;;;;;;;25.33;33.45;100223.70;2209860;86;25889;-88
2021/06/09 20:02:55;;;;;;;4.55;2.25;;;;;;;25.24;33.62;100228.06;2249134;86;25833;-84
2021/06/09 20:06:21;;;;;;;2.40;1.65;;;;;;;25.13;33.83;100231.16;2272392;85;25611;-83
2021/06/09 20:09:44;;;;;;;5.60;1.75;;;;;;;25.01;34.02;100220.05;2239263;87;25897;-87
2021/06/09 20:13:13;;;;;;;6.33;1.85;;;;;;;24.89;34.20;100220.08;2232263;88;25729;-86
2021/06/09 20:16:34;;;;;;;3.10;1.77;;;;;;;24.81;34.49;100225.70;2218517;88;25897;-85
2021/06/09 20:19:55;;;;;;;4.22;1.65;;;;;;;24.81;34.77;100226.17;2240736;86;26081;-77
2021/06/09 20:23:28;;;;;;;9.70;2.00;;;;;;;24.80;34.79;100229.27;2311203;83;25751;-79
2021/06/09 20:30:29;;;;;;;5.30;1.90;;;;;;;24.78;34.90;100236.48;2312847;84;25727;-82
2021/06/09 20:34:07;;;;;;;;;;;;;;;;;;;;;
2021/06/09 20:37:22;;;;;;;2.02;1.45;;;;;;;24.68;35.22;100230.63;2260710;86;25726;-78
2021/06/09 20:40:44;;;;;;;5.08;1.57;;;;;;;24.72;35.35;100229.57;2264766;85;25745;-76
2021/06/09 20:44:07;;;;;;;4.80;1.62;;;;;;;24.73;35.48;100234.44;2282367;85;26512;-84
2021/06/09 20:47:32;;;;;;;7.37;1.40;;;;;;;24.71;35.67;100233.64;2289039;85;25438;-82
2021/06/09 20:50:54;;;;;;;3.75;1.50;;;;;;;24.69;35.71;100231.48;2288920;85;25746;-79
2021/06/09 20:54:30;;;;;;;3.08;1.37;;;;;;;24.66;35.63;100228.92;2236233;86;25842;-81
2021/06/09 20:58:01;;;;;;;5.42;1.95;;;;;;;24.66;35.64;100240.92;2284613;85;25846;-87
2021/06/09 21:02:01;;;;;;;3.70;1.70;;;;;;;24.60;35.68;100234.48;2142012;91;25833;-84
2021/06/09 21:08:58;;;;;;;4.75;1.87;;;;;;;24.54;35.73;100242.72;2078907;92;25858;-83
2021/06/09 21:13:07;;;;;;;10.25;1.75;;;;;;;24.51;35.78;100246.36;1988838;97;25622;-81
2021/06/09 21:21:13;;;;;;;2.08;1.77;;;;;;;24.39;36.08;100243.63;1954805;99;25937;-90
2021/06/09 21:28:32;;;;;;;5.25;2.10;;;;;;;24.32;36.33;100241.23;1888750;102;25954;-87
2021/06/09 21:31:54;;;;;;;6.80;2.00;;;;;;;24.27;36.46;100248.94;1907716;103;25525;-73
2021/06/09 21:35:18;;;;;;;5.78;2.00;;;;;;;24.23;36.59;100252.64;1906710;103;25915;-76
2021/06/09 21:38:43;;;;;;;4.33;2.15;;;;;;;24.19;36.76;100246.98;1912123;101;25892;-86
2021/06/09 21:42:06;;;;;;;2.98;1.82;;;;;;;24.14;36.96;100252.95;1911834;103;25882;-85
2021/06/09 21:45:30;;;;;;;5.10;1.80;;;;;;;24.12;37.10;100248.59;1891964;103;25974;-80
2021/06/09 21:48:54;;;;;;;3.15;1.70;;;;;;;24.10;37.26;100254.42;1977525;95;25900;-80
2021/06/09 21:52:15;;;;;;;5.92;2.50;;;;;;;24.11;37.39;100261.05;2102558;92;25524;-76
2021/06/09 21:55:35;;;;;;;4.37;1.92;;;;;;;24.14;37.40;100265.41;2070634;93;25332;-81
2021/06/09 21:58:56;;;;;;;7.92;2.10;;;;;;;24.14;37.51;100262.73;2128218;92;26023;-80
2021/06/09 22:02:20;;;;;;;3.72;1.57;;;;;;;24.11;37.71;100255.72;2184790;89;25787;-86
2021/06/09 22:05:45;;;;;;;3.77;1.70;;;;;;;24.07;37.73;100250.09;2295819;83;25849;-84
2021/06/09 22:09:26;;;;;;;3.12;1.80;;;;;;;24.07;37.86;100254.09;2328732;84;25960;-79
2021/06/09 22:12:47;;;;;;;4.28;1.67;;;;;;;24.05;37.98;100251.92;2325037;84;25849;-79
2021/06/09 22:16:14;;;;;;;4.87;1.65;;;;;;;24.06;37.99;100254.98;2323853;84;25744;-86
2021/06/09 22:19:35;;;;;;;6.20;1.67;;;;;;;24.06;38.10;100252.79;2318323;84;25720;-83
2021/06/09 22:22:56;;;;;;;3.37;2.08;;;;;;;24.00;38.22;100245.44;2332987;79;25821;-76
2021/06/09 22:26:17;;;;;;;3.27;1.82;;;;;;;23.97;38.20;100243.34;2498391;78;25495;-79
2021/06/09 22:29:38;;;;;;;4.47;1.90;;;;;;;23.96;38.26;100236.25;2499242;77;25500;-78
2021/06/09 22:32:59;;;;;;;5.78;1.82;;;;;;;23.93;38.25;100241.24;2497570;78;25543;-81
2021/06/09 22:36:31;;;;;;;8.10;1.80;;;;;;;23.89;38.33;100238.25;2491519;77;25714;-84
2021/06/09 22:39:54;;;;;;;4.12;1.98;;;;;;;23.85;38.41;100236.61;2497707;77;25610;-85
2021/06/09 22:43:15;;;;;;;2.00;1.70;;;;;;;23.77;38.46;100242.20;2504301;77;25336;-78
2021/06/09 22:46:36;;;;;;;7.30;1.80;;;;;;;23.74;38.47;100234.78;2494214;77;25572;-84
2021/06/09 22:50:13;;;;;;;2.95;1.75;;;;;;;23.65;38.54;100243.89;2498281;77;25502;-85
2021/06/09 22:53:34;;;;;;;5.05;1.80;;;;;;;23.59;38.66;100246.78;2486146;78;25556;-85
2021/06/09 22:56:58;;;;;;;2.08;1.65;;;;;;;23.54;38.82;100243.38;2481966;77;25617;-85
2021/06/09 23:00:25;;;;;;;4.37;1.80;;;;;;;23.46;38.96;100236.11;2497827;78;25822;-81
2021/06/09 23:03:50;;;;;;;2.58;2.05;;;;;;;23.38;38.99;100243.45;2512170;78;25609;-75
2021/06/09 23:07:15;;;;;;;2.37;1.75;;;;;;;23.33;39.13;100248.46;2507403;77;25577;-81
2021/06/09 23:10:37;;;;;;;3.10;1.85;;;;;;;23.30;39.27;100251.21;2515321;78;25589;-79
2021/06/09 23:14:00;;;;;;;5.30;1.62;;;;;;;23.24;39.38;100246.08;2502822;77;25656;-77
2021/06/09 23:17:25;;;;;;;3.70;1.52;;;;;;;23.22;39.43;100245.70;2483644;78;25915;-80
2021/06/09 23:20:46;;;;;;;5.85;1.60;;;;;;;23.15;39.57;100248.14;2457688;78;25370;-82
2021/06/09 23:24:12;;;;;;;7.67;1.32;;;;;;;23.12;39.64;100242.91;2482228;78;25631;-83
2021/06/09 23:27:44;;;;;;;3.50;1.80;;;;;;;23.13;39.77;100247.34;2403101;81;25877;-85
2021/06/09 23:31:12;;;;;;;4.40;2.00;;;;;;;23.05;39.85;100244.45;2402319;81;25637;-84
2021/06/09 23:34:33;;;;;;;5.53;1.70;;;;;;;23.02;39.88;100248.53;2404663;81;25620;-85
2021/06/09 23:37:54;;;;;;;4.40;1.70;;;;;;;23.01;39.92;100241.45;2379815;81;26339;-84
2021/06/09 23:41:15;;;;;;;2.02;1.55;;;;;;;22.99;40.02;100247.75;2382751;82;25624;-80
2021/06/09 23:44:47;;;;;;;8.28;1.92;;;;;;;22.91;40.17;100249.71;2403206;81;25748;-84
2021/06/09 23:48:16;;;;;;;2.25;1.87;;;;;;;22.82;40.29;100250.87;2369565;81;25609;-80
2021/06/09 23:55:30;;;;;;;2.77;1.45;;;;;;;22.74;40.56;100252.39;2326890;83;25732;-83
2021/06/09 23:58:51;;;;;;;3.12;1.72;;;;;;;22.65;40.60;100251.81;2399468;81;25444;-80
